createdAt,value
2022-10-12T00:01:10.506Z,99015.00
2022-10-12T00:03:38.368Z,99020.16
2022-10-12T00:06:17.239Z,99027.81
2022-10-12T00:08:46.344Z,99015.53
2022-10-12T00:11:21.853Z,99019.91
2022-10-12T00:13:49.373Z,99004.34
2022-10-12T00:16:19.820Z,99004.44
2022-10-12T00:18:52.312Z,99015.28
2022-10-12T00:21:20.927Z,99017.22
2022-10-12T00:23:48.807Z,99017.81
2022-10-12T00:26:21.283Z,99018.75
2022-10-12T00:28:49.175Z,99016.91
2022-10-12T00:31:20.971Z,99020.34
2022-10-12T00:33:48.654Z,99019.50
2022-10-12T00:36:27.380Z,99016.22
2022-10-12T00:38:56.602Z,99016.72
2022-10-12T00:41:29.590Z,99017.84
2022-10-12T00:43:58.879Z,99011.94
2022-10-12T00:46:46.236Z,99005.31
2022-10-12T00:49:26.460Z,99012.41
2022-10-12T00:52:00.652Z,99010.66
2022-10-12T00:54:36.469Z,99020.19
2022-10-12T00:57:06.321Z,99013.25
2022-10-12T00:59:43.784Z,99007.28
2022-10-12T01:02:12.814Z,99004.56
2022-10-12T01:04:41.458Z,99012.16
2022-10-12T01:07:08.715Z,99010.38
2022-10-12T01:09:36.850Z,99008.44
2022-10-12T01:12:07.350Z,99009.47
2022-10-12T01:14:36.039Z,99008.50
2022-10-12T01:17:35.470Z,99008.53
2022-10-12T01:20:46.887Z,99002.56
2022-10-12T01:23:17.399Z,99006.66
2022-10-12T01:26:34.338Z,99007.00
2022-10-12T01:29:22.859Z,99004.50
2022-10-12T01:32:03.208Z,99002.91
2022-10-12T01:35:00.525Z,99007.03
2022-10-12T01:37:52.582Z,99005.94
2022-10-12T01:40:44.344Z,99006.34
2022-10-12T01:43:11.748Z,99010.63
2022-10-12T01:45:39.089Z,99008.97
2022-10-12T01:48:07.428Z,99008.97
2022-10-12T01:50:51.226Z,99010.72
2022-10-12T01:53:53.569Z,99016.06
2022-10-12T01:56:31.464Z,99011.72
2022-10-12T01:59:31.418Z,99010.97
2022-10-12T02:02:12.063Z,99015.53
2022-10-12T02:04:52.000Z,99012.19
2022-10-12T02:07:48.412Z,99008.91
2022-10-12T02:10:28.142Z,99011.50
2022-10-12T02:13:01.129Z,99008.13
2022-10-12T02:15:30.594Z,99002.34
2022-10-12T02:17:59.236Z,99004.94
2022-10-12T02:20:28.372Z,99010.13
2022-10-12T02:22:56.084Z,99004.09
2022-10-12T02:25:27.430Z,99001.56
2022-10-12T02:28:05.653Z,98995.59
2022-10-12T02:30:43.727Z,99000.13
2022-10-12T02:33:35.806Z,99007.41
2022-10-12T02:36:15.790Z,99016.28
2022-10-12T02:38:57.521Z,99005.97
2022-10-12T02:41:36.335Z,99013.00
2022-10-12T02:44:10.197Z,99014.97
2022-10-12T02:46:40.159Z,99015.22
2022-10-12T02:49:08.515Z,99010.16
2022-10-12T02:51:39.047Z,99017.22
2022-10-12T02:54:06.233Z,99017.53
2022-10-12T02:56:33.579Z,99015.06
2022-10-12T02:59:00.816Z,99013.53
2022-10-12T03:01:28.072Z,99010.38
2022-10-12T03:03:55.470Z,99017.38
2022-10-12T03:06:22.674Z,99013.09
2022-10-12T03:08:49.979Z,99013.28
2022-10-12T03:11:17.403Z,99015.41
2022-10-12T03:13:44.618Z,99005.94
2022-10-12T03:16:12.092Z,99005.97
2022-10-12T03:18:40.130Z,99001.16
2022-10-12T03:21:07.739Z,99005.56
2022-10-12T03:23:34.985Z,99001.34
2022-10-12T03:26:02.480Z,99007.56
2022-10-12T03:28:29.957Z,99007.56
2022-10-12T03:30:59.753Z,99004.00
2022-10-12T03:33:27.412Z,99009.13
2022-10-12T03:35:54.831Z,99012.50
2022-10-12T03:38:22.341Z,99009.91
2022-10-12T03:40:49.887Z,99016.78
2022-10-12T03:43:17.416Z,99020.25
2022-10-12T03:45:44.870Z,99020.91
2022-10-12T03:48:12.155Z,99019.16
2022-10-12T03:50:40.284Z,99025.13
2022-10-12T03:53:07.785Z,99016.69
2022-10-12T03:55:35.251Z,99020.13
2022-10-12T03:58:02.468Z,99026.94
2022-10-12T04:00:30.563Z,99020.13
2022-10-12T04:02:57.812Z,99022.53
2022-10-12T04:05:25.096Z,99017.34
2022-10-12T04:07:52.548Z,99018.94
2022-10-12T04:10:19.880Z,99026.66
2022-10-12T04:12:47.168Z,99025.81
2022-10-12T04:15:15.061Z,99022.47
2022-10-12T04:17:42.480Z,99024.34
2022-10-12T04:20:11.580Z,99025.50
2022-10-12T04:22:40.067Z,99019.28
2022-10-12T04:25:08.040Z,99028.78
2022-10-12T04:27:35.331Z,99022.59
2022-10-12T04:30:03.041Z,99026.94
2022-10-12T04:32:31.031Z,99022.72
2022-10-12T04:34:58.470Z,99027.94
2022-10-12T04:37:28.162Z,99015.94
2022-10-12T04:39:55.903Z,99019.38
2022-10-12T04:42:23.076Z,99012.56
2022-10-12T04:44:50.556Z,99017.78
2022-10-12T04:47:17.826Z,99022.25
2022-10-12T04:49:45.478Z,99024.94
2022-10-12T04:52:12.829Z,99032.88
2022-10-12T04:54:41.077Z,99027.72
2022-10-12T04:57:08.471Z,99035.59
2022-10-12T04:59:35.971Z,99034.78
2022-10-12T05:02:03.125Z,99040.09
2022-10-12T05:04:30.623Z,99038.41
2022-10-12T05:06:58.074Z,99037.63
2022-10-12T05:09:25.364Z,99040.88
2022-10-12T05:11:52.720Z,99034.63
2022-10-12T05:14:20.074Z,99040.44
2022-10-12T05:16:48.539Z,99041.00
2022-10-12T05:19:16.035Z,99035.75
2022-10-12T05:21:43.648Z,99042.25
2022-10-12T05:24:11.404Z,99042.09
2022-10-12T05:26:38.825Z,99053.25
2022-10-12T05:29:06.085Z,99053.09
2022-10-12T05:31:33.564Z,99048.53
2022-10-12T05:34:01.160Z,99050.00
2022-10-12T05:36:28.594Z,99056.72
2022-10-12T05:38:55.958Z,99049.63
2022-10-12T05:41:23.442Z,99047.78
2022-10-12T05:43:50.698Z,99051.75
2022-10-12T05:46:18.194Z,99052.47
2022-10-12T05:48:45.367Z,99055.59
2022-10-12T05:51:12.780Z,99056.81
2022-10-12T05:53:40.173Z,99047.72
2022-10-12T05:56:08.610Z,99055.28
2022-10-12T05:58:35.884Z,99048.25
2022-10-12T06:01:14.519Z,99059.22
2022-10-12T06:03:43.656Z,99054.88
2022-10-12T06:06:11.844Z,99050.84
2022-10-12T06:08:39.586Z,99054.22
2022-10-12T06:11:07.655Z,99056.31
2022-10-12T06:13:34.846Z,99059.56
2022-10-12T06:16:02.231Z,99053.97
2022-10-12T06:18:29.460Z,99055.53
2022-10-12T06:21:28.371Z,99059.09
2022-10-12T06:23:44.492Z,99053.53
2022-10-12T06:26:16.498Z,99058.41
2022-10-12T06:28:44.327Z,99056.97
2022-10-12T06:31:11.915Z,99061.53
2022-10-12T06:33:39.516Z,99060.00
2022-10-12T06:36:07.507Z,99067.94
2022-10-12T06:38:34.809Z,99073.97
2022-10-12T06:41:02.290Z,99068.13
2022-10-12T06:43:29.476Z,99065.91
2022-10-12T06:46:03.601Z,99063.69
2022-10-12T06:48:31.351Z,99068.72
2022-10-12T06:50:58.819Z,99074.16
2022-10-12T06:53:28.867Z,99069.63
2022-10-12T06:55:56.486Z,99065.97
2022-10-12T06:58:23.847Z,99063.91
2022-10-12T07:00:52.488Z,99065.03
2022-10-12T07:03:20.396Z,99068.16
2022-10-12T07:05:47.935Z,99067.41
2022-10-12T07:08:15.143Z,99076.22
2022-10-12T07:10:42.571Z,99077.41
2022-10-12T07:13:09.783Z,99076.78
2022-10-12T07:15:37.209Z,99081.19
2022-10-12T07:18:04.486Z,99076.25
2022-10-12T07:20:32.161Z,99079.38
2022-10-12T07:22:59.344Z,99075.09
2022-10-12T07:25:26.746Z,99065.41
2022-10-12T07:27:54.020Z,99078.72
2022-10-12T07:30:21.441Z,99073.03
2022-10-12T07:32:48.628Z,99079.59
2022-10-12T07:35:16.055Z,99069.94
2022-10-12T07:37:43.151Z,99072.56
2022-10-12T07:40:10.686Z,99061.59
2022-10-12T07:42:53.706Z,99059.38
2022-10-12T07:45:28.731Z,99065.72
2022-10-12T07:47:56.688Z,99058.63
2022-10-12T07:50:25.295Z,99069.94
2022-10-12T07:52:52.730Z,99065.72
2022-10-12T07:55:20.031Z,99074.06
2022-10-12T07:57:47.391Z,99068.28
2022-10-12T08:00:15.212Z,99071.50
2022-10-12T08:02:42.853Z,99076.31
2022-10-12T08:05:10.241Z,99074.63
2022-10-12T08:07:37.890Z,99075.00
2022-10-12T08:10:05.959Z,99076.66
2022-10-12T08:12:33.427Z,99075.59
2022-10-12T08:15:00.913Z,99085.44
2022-10-12T08:17:28.479Z,99076.31
2022-10-12T08:19:55.673Z,99078.59
2022-10-12T08:22:23.290Z,99080.34
2022-10-12T08:24:50.437Z,99082.63
2022-10-12T08:27:17.846Z,99079.47
2022-10-12T08:29:45.023Z,99085.34
2022-10-12T08:32:12.461Z,99085.28
2022-10-12T08:34:39.753Z,99085.47
2022-10-12T08:37:07.115Z,99092.06
2022-10-12T08:39:34.334Z,99082.47
2022-10-12T08:42:24.213Z,99088.88
2022-10-12T08:45:38.111Z,99083.91
2022-10-12T08:48:26.277Z,99096.31
2022-10-12T08:51:11.167Z,99088.84
2022-10-12T08:53:55.745Z,99090.59
2022-10-12T08:56:23.447Z,99086.84
2022-10-12T08:58:54.587Z,99087.72
2022-10-12T09:01:59.870Z,99092.13
2022-10-12T09:04:54.864Z,99085.88
2022-10-12T09:07:30.689Z,99085.06
2022-10-12T09:10:17.956Z,99081.75
2022-10-12T09:13:14.809Z,99077.28
2022-10-12T09:16:02.544Z,99069.41
2022-10-12T09:18:49.758Z,99065.03
2022-10-12T09:21:20.940Z,99066.16
2022-10-12T09:23:49.353Z,99075.44
2022-10-12T09:26:43.851Z,99069.38
2022-10-12T09:29:31.647Z,99062.59
2022-10-12T09:32:56.207Z,99060.13
2022-10-12T09:35:24.959Z,99062.78
2022-10-12T09:37:54.547Z,99056.06
2022-10-12T09:40:30.972Z,99052.31
2022-10-12T09:43:01.678Z,99053.22
2022-10-12T09:45:34.298Z,99056.41
2022-10-12T09:48:24.841Z,99049.25
2022-10-12T09:51:03.263Z,99062.50
2022-10-12T09:53:41.720Z,99043.28
2022-10-12T09:56:24.685Z,99052.53
2022-10-12T09:58:56.859Z,99053.09
2022-10-12T10:01:30.757Z,99041.59
2022-10-12T10:04:24.088Z,99039.69
2022-10-12T10:06:51.609Z,99038.72
2022-10-12T10:09:38.989Z,99041.31
2022-10-12T10:12:27.298Z,99036.63
2022-10-12T10:14:57.419Z,99030.91
2022-10-12T10:17:37.378Z,99037.09
2022-10-12T10:20:08.389Z,99030.88
2022-10-12T10:22:35.771Z,99040.69
2022-10-12T10:25:03.029Z,99035.06
2022-10-12T10:27:40.438Z,99049.41
2022-10-12T10:30:35.199Z,99036.31
2022-10-12T10:33:19.095Z,99037.19
2022-10-12T10:36:05.074Z,99030.50
2022-10-12T10:38:57.811Z,99032.69
2022-10-12T10:41:33.263Z,99031.25
2022-10-12T10:44:00.443Z,99028.97
2022-10-12T10:46:33.102Z,99032.34
2022-10-12T10:49:07.601Z,99032.75
2022-10-12T10:51:48.492Z,99041.72
2022-10-12T10:54:23.736Z,99039.88
2022-10-12T10:56:59.155Z,99047.13
2022-10-12T10:59:41.337Z,99038.47
2022-10-12T11:02:47.035Z,99041.34
2022-10-12T11:05:22.206Z,99047.31
2022-10-12T11:08:11.179Z,99038.59
2022-10-12T11:10:52.433Z,99025.50
2022-10-12T11:13:39.917Z,99027.69
2022-10-12T11:16:51.296Z,99021.44
2022-10-12T11:19:30.349Z,99028.13
2022-10-12T11:22:05.788Z,99022.41
2022-10-12T11:24:46.065Z,99021.38
2022-10-12T11:27:28.143Z,99027.28
2022-10-12T11:30:09.210Z,99025.66
2022-10-12T11:33:07.922Z,99027.41
2022-10-12T11:35:43.937Z,99029.38
2022-10-12T11:38:16.496Z,99016.59
2022-10-12T11:41:18.969Z,99014.25
2022-10-12T11:44:00.733Z,99012.41
2022-10-12T11:46:40.231Z,98999.38
2022-10-12T11:49:34.626Z,99004.06
2022-10-12T11:52:28.895Z,98999.94
2022-10-12T11:55:31.344Z,98994.44
2022-10-12T11:58:13.134Z,99000.81
2022-10-12T12:00:56.235Z,98997.50
2022-10-12T12:03:45.379Z,99000.03
2022-10-12T12:06:30.626Z,98993.34
2022-10-12T12:09:04.005Z,98997.41
2022-10-12T12:11:34.957Z,99006.09
2022-10-12T12:14:21.049Z,98996.66
2022-10-12T12:16:49.766Z,98990.81
2022-10-12T12:19:43.114Z,98983.69
2022-10-12T12:22:29.273Z,98987.94
2022-10-12T12:25:10.613Z,98979.03
2022-10-12T12:27:50.890Z,98974.47
2022-10-12T12:30:18.241Z,98978.34
2022-10-12T12:33:00.025Z,98972.72
2022-10-12T12:35:29.505Z,98967.91
2022-10-12T12:38:17.906Z,98958.69
2022-10-12T12:41:05.416Z,98961.56
2022-10-12T12:43:32.635Z,98956.44
2022-10-12T12:46:14.917Z,98961.88
2022-10-12T12:48:42.054Z,98956.72
2022-10-12T12:51:14.105Z,98956.66
2022-10-12T12:54:06.604Z,98944.50
2022-10-12T12:56:45.778Z,98944.03
2022-10-12T12:59:49.657Z,98944.78
2022-10-12T13:02:49.339Z,98947.09
2022-10-12T13:06:06.507Z,98933.50
2022-10-12T13:08:52.007Z,98936.25
2022-10-12T13:11:58.975Z,98938.06
2022-10-12T13:15:03.330Z,98930.72
2022-10-12T13:18:00.943Z,98925.25
2022-10-12T13:20:34.394Z,98927.78
2022-10-12T13:23:09.058Z,98929.72
2022-10-12T13:25:46.352Z,98924.81
2022-10-12T13:28:32.796Z,98926.03
2022-10-12T13:31:14.658Z,98925.53
2022-10-12T13:33:59.175Z,98920.00
2022-10-12T13:36:31.559Z,98915.75
2022-10-12T13:39:16.346Z,98912.69
2022-10-12T13:41:46.399Z,98912.81
2022-10-12T13:44:34.642Z,98910.03
2022-10-12T13:47:21.251Z,98917.13
2022-10-12T13:49:48.609Z,98913.13
2022-10-12T13:52:26.187Z,98909.09
2022-10-12T13:54:58.231Z,98912.56
2022-10-12T13:57:41.066Z,98910.72
2022-10-12T14:00:14.392Z,98918.38
2022-10-12T14:02:53.224Z,98921.31
2022-10-12T14:05:24.888Z,98914.03
2022-10-12T14:07:57.522Z,98911.03
2022-10-12T14:10:37.380Z,98907.16
2022-10-12T14:13:07.317Z,98912.78
2022-10-12T14:15:41.022Z,98900.84
2022-10-12T14:18:42.382Z,98903.75
2022-10-12T14:21:34.600Z,98903.09
2022-10-12T14:24:10.550Z,98890.41
2022-10-12T14:26:42.394Z,98896.00
2022-10-12T14:29:40.988Z,98887.06
2022-10-12T14:32:39.355Z,98884.50
2022-10-12T14:35:18.702Z,98885.53
2022-10-12T14:37:47.717Z,98883.09
2022-10-12T14:40:28.645Z,98883.78
2022-10-12T14:43:08.163Z,98875.53
2022-10-12T14:45:39.434Z,98885.06
2022-10-12T14:48:18.008Z,98871.91
2022-10-12T14:50:45.866Z,98869.50
2022-10-12T14:53:15.422Z,98872.75
2022-10-12T14:55:44.694Z,98865.19
2022-10-12T14:58:17.330Z,98873.88
2022-10-12T15:00:45.190Z,98870.88
2022-10-12T15:03:12.772Z,98865.81
2022-10-12T15:05:40.119Z,98865.53
2022-10-12T15:08:09.176Z,98865.63
2022-10-12T15:10:37.685Z,98868.75
2022-10-12T15:13:05.364Z,98866.91
2022-10-12T15:15:42.656Z,98869.41
2022-10-12T15:18:10.686Z,98864.97
2022-10-12T15:20:38.929Z,98864.94
2022-10-12T15:23:06.824Z,98873.88
2022-10-12T15:25:56.916Z,98868.88
2022-10-12T15:28:24.519Z,98877.41
2022-10-12T15:31:15.818Z,98880.00
2022-10-12T15:33:41.722Z,98881.88
2022-10-12T15:36:09.822Z,98875.78
2022-10-12T15:38:37.846Z,98884.06
2022-10-12T15:41:05.832Z,98881.28
2022-10-12T15:43:35.703Z,98879.53
2022-10-12T15:46:05.624Z,98876.00
2022-10-12T15:48:33.049Z,98885.09
2022-10-12T15:51:00.325Z,98881.72
2022-10-12T15:53:27.847Z,98879.41
2022-10-12T15:55:56.102Z,98882.75
2022-10-12T15:58:24.318Z,98882.75
2022-10-12T16:00:51.636Z,98874.53
2022-10-12T16:03:25.621Z,98882.47
2022-10-12T16:05:54.537Z,98893.69
2022-10-12T16:08:22.828Z,98894.47
2022-10-12T16:10:51.086Z,98897.56
2022-10-12T16:13:18.990Z,98900.53
2022-10-12T16:15:46.387Z,98894.22
2022-10-12T16:18:16.786Z,98889.75
2022-10-12T16:20:47.632Z,98886.00
2022-10-12T16:23:28.676Z,98892.31
2022-10-12T16:25:57.158Z,98889.13
2022-10-12T16:28:25.991Z,98896.69
2022-10-12T16:30:54.414Z,98896.00
2022-10-12T16:33:22.227Z,98893.97
2022-10-12T16:35:49.484Z,98901.53
2022-10-12T16:38:19.814Z,98903.59
2022-10-12T16:40:50.767Z,98905.75
2022-10-12T16:43:19.475Z,98900.53
2022-10-12T16:45:55.949Z,98897.28
2022-10-12T16:48:23.427Z,98893.56
2022-10-12T16:50:50.661Z,98893.81
2022-10-12T16:53:18.173Z,98897.63
2022-10-12T16:55:45.910Z,98895.69
2022-10-12T16:58:13.345Z,98898.91
2022-10-12T17:00:42.350Z,98897.69
2022-10-12T17:03:13.869Z,98893.03
2022-10-12T17:05:42.539Z,98898.47
2022-10-12T17:08:15.125Z,98902.63
2022-10-12T17:10:44.725Z,98898.56
2022-10-12T17:13:13.623Z,98899.97
2022-10-12T17:15:44.140Z,98899.69
2022-10-12T17:18:11.554Z,98896.91
2022-10-12T17:20:38.781Z,98897.91
2022-10-12T17:23:06.448Z,98898.16
2022-10-12T17:25:33.747Z,98898.41
2022-10-12T17:28:01.221Z,98900.81
2022-10-12T17:30:28.491Z,98906.50
2022-10-12T17:32:55.884Z,98897.06
2022-10-12T17:35:23.449Z,98901.81
2022-10-12T17:37:50.833Z,98902.97
2022-10-12T17:40:18.325Z,98904.53
2022-10-12T17:42:45.765Z,98906.66
2022-10-12T17:45:13.443Z,98902.53
2022-10-12T17:47:40.933Z,98904.22
2022-10-12T17:50:08.891Z,98900.25
2022-10-12T17:52:39.699Z,98902.97
2022-10-12T17:55:09.387Z,98903.59
2022-10-12T17:57:42.707Z,98909.38
2022-10-12T18:00:11.187Z,98896.69
2022-10-12T18:02:38.497Z,98899.41
2022-10-12T18:05:06.343Z,98906.22
2022-10-12T18:07:33.890Z,98904.44
2022-10-12T18:10:01.129Z,98908.22
2022-10-12T18:12:28.835Z,98898.13
2022-10-12T18:14:56.093Z,98893.56
2022-10-12T18:17:23.383Z,98898.63
2022-10-12T18:19:51.655Z,98901.78
2022-10-12T18:22:19.150Z,98898.69
2022-10-12T18:24:49.007Z,98900.63
2022-10-12T18:27:16.506Z,98899.69
2022-10-12T18:29:44.018Z,98898.31
2022-10-12T18:32:12.925Z,98902.91
2022-10-12T18:34:43.526Z,98894.25
2022-10-12T18:37:10.748Z,98903.03
2022-10-12T18:39:40.227Z,98905.09
2022-10-12T18:42:07.527Z,98897.25
2022-10-12T18:44:35.011Z,98906.22
2022-10-12T18:47:02.330Z,98900.44
2022-10-12T18:49:29.839Z,98907.47
2022-10-12T18:51:57.161Z,98905.84
2022-10-12T18:54:24.631Z,98897.47
2022-10-12T18:56:51.912Z,98904.47
2022-10-12T18:59:20.399Z,98905.84
2022-10-12T19:01:47.659Z,98899.88
2022-10-12T19:04:15.058Z,98894.47
2022-10-12T19:06:43.255Z,98893.69
2022-10-12T19:09:13.769Z,98900.91
2022-10-12T19:11:41.477Z,98900.34
2022-10-12T19:14:15.976Z,98898.97
2022-10-12T19:16:44.799Z,98899.81
2022-10-12T19:19:20.829Z,98905.22
2022-10-12T19:21:51.671Z,98901.22
2022-10-12T19:24:21.461Z,98906.72
2022-10-12T19:26:49.417Z,98909.16
2022-10-12T19:29:17.061Z,98911.50
2022-10-12T19:31:47.960Z,98909.34
2022-10-12T19:34:19.409Z,98908.63
2022-10-12T19:36:48.343Z,98911.69
2022-10-12T19:39:21.237Z,98908.88
2022-10-12T19:41:50.783Z,98911.94
2022-10-12T19:44:19.395Z,98913.31
2022-10-12T19:46:48.939Z,98913.69
2022-10-12T19:49:18.601Z,98907.75
2022-10-12T19:51:46.720Z,98910.38
2022-10-12T19:54:15.953Z,98909.63
2022-10-12T19:56:43.509Z,98909.03
2022-10-12T19:59:11.352Z,98903.44
2022-10-12T20:01:40.445Z,98912.19
2022-10-12T20:04:10.172Z,98913.22
2022-10-12T20:06:38.321Z,98910.69
2022-10-12T20:09:08.391Z,98911.94
2022-10-12T20:11:38.390Z,98913.53
2022-10-12T20:14:06.872Z,98919.88
2022-10-12T20:16:36.309Z,98913.50
2022-10-12T20:19:06.955Z,98908.19
2022-10-12T20:21:36.560Z,98911.06
2022-10-12T20:24:04.174Z,98917.47
2022-10-12T20:26:31.694Z,98916.19
2022-10-12T20:28:58.931Z,98920.66
2022-10-12T20:31:28.041Z,98924.13
2022-10-12T20:33:58.015Z,98914.84
2022-10-12T20:36:30.612Z,98917.72
2022-10-12T20:38:59.891Z,98918.03
2022-10-12T20:41:28.881Z,98919.28
2022-10-12T20:43:59.037Z,98911.22
2022-10-12T20:46:28.814Z,98915.88
2022-10-12T20:48:59.687Z,98913.59
2022-10-12T20:51:44.591Z,98912.34
2022-10-12T20:54:18.766Z,98916.84
2022-10-12T20:56:49.485Z,98915.16
2022-10-12T20:59:16.978Z,98910.88
2022-10-12T21:01:44.579Z,98915.47
2022-10-12T21:04:11.938Z,98909.06
2022-10-12T21:06:39.865Z,98911.91
2022-10-12T21:09:07.165Z,98909.53
2022-10-12T21:11:34.628Z,98901.81
2022-10-12T21:14:02.180Z,98908.94
2022-10-12T21:16:29.822Z,98907.31
2022-10-12T21:18:57.139Z,98902.28
2022-10-12T21:21:25.209Z,98902.50
2022-10-12T21:24:01.441Z,98904.69
2022-10-12T21:26:31.659Z,98902.28
2022-10-12T21:29:00.274Z,98908.59
2022-10-12T21:31:32.409Z,98899.97
2022-10-12T21:34:05.704Z,98903.06
2022-10-12T21:36:36.565Z,98897.00
2022-10-12T21:39:16.870Z,98904.06
2022-10-12T21:41:44.343Z,98904.88
2022-10-12T21:44:12.695Z,98901.03
2022-10-12T21:46:40.383Z,98897.50
2022-10-12T21:49:08.472Z,98893.25
2022-10-12T21:51:37.828Z,98899.25
2022-10-12T21:54:06.905Z,98895.53
2022-10-12T21:56:36.746Z,98897.72
2022-10-12T21:59:06.365Z,98895.59
2022-10-12T22:01:40.449Z,98904.31
2022-10-12T22:04:13.768Z,98896.22
2022-10-12T22:06:43.295Z,98904.50
2022-10-12T22:09:16.622Z,98893.88
2022-10-12T22:11:44.134Z,98892.81
2022-10-12T22:14:18.655Z,98900.41
2022-10-12T22:16:46.800Z,98889.75
2022-10-12T22:19:19.886Z,98895.69
2022-10-12T22:21:51.261Z,98895.72
2022-10-12T22:24:20.219Z,98898.34
2022-10-12T22:26:47.790Z,98898.22
2022-10-12T22:29:15.169Z,98895.53
2022-10-12T22:31:44.412Z,98895.53
2022-10-12T22:34:11.785Z,98889.59
2022-10-12T22:36:38.987Z,98890.31
2022-10-12T22:39:06.477Z,98889.41
2022-10-12T22:41:33.728Z,98889.59
2022-10-12T22:44:00.912Z,98884.34
2022-10-12T22:46:28.374Z,98882.03
2022-10-12T22:48:55.796Z,98886.47
2022-10-12T22:51:32.977Z,98879.78
2022-10-12T22:54:02.324Z,98876.59
2022-10-12T22:56:30.249Z,98872.69
2022-10-12T22:59:01.538Z,98869.25
2022-10-12T23:01:29.700Z,98876.16
2022-10-12T23:03:57.090Z,98864.50
2022-10-12T23:06:25.685Z,98880.94
2022-10-12T23:08:53.801Z,98875.97
2022-10-12T23:11:28.343Z,98874.38
2022-10-12T23:13:57.820Z,98868.25
2022-10-12T23:16:31.350Z,98868.31
2022-10-12T23:19:03.018Z,98880.69
2022-10-12T23:21:31.798Z,98878.94
2022-10-12T23:24:01.299Z,98873.81
2022-10-12T23:26:29.755Z,98868.59
2022-10-12T23:28:57.532Z,98875.56
2022-10-12T23:31:28.626Z,98875.69
2022-10-12T23:34:02.978Z,98875.72
2022-10-12T23:36:31.293Z,98875.72
2022-10-12T23:39:05.105Z,98877.31
2022-10-12T23:41:32.597Z,98876.72
2022-10-12T23:44:00.055Z,98879.41
2022-10-12T23:46:27.364Z,98884.59
2022-10-12T23:48:54.726Z,98882.00
2022-10-12T23:51:22.232Z,98882.13
2022-10-12T23:53:49.528Z,98889.16
2022-10-12T23:56:16.994Z,98878.16
2022-10-12T23:58:44.444Z,98876.56
